createdAt,value
2022-12-31T00:02:20.907Z,98743.94
2022-12-31T00:04:49.374Z,98787.84
2022-12-31T00:09:58.877Z,98754.00
2022-12-31T00:12:27.471Z,98745.88
2022-12-31T00:14:56.747Z,98779.31
2022-12-31T00:17:26.421Z,98715.16
2022-12-31T00:19:54.782Z,98697.81
2022-12-31T00:22:23.358Z,98696.41
2022-12-31T00:24:55.850Z,98724.72
2022-12-31T00:27:24.717Z,98752.81
2022-12-31T00:29:53.474Z,98766.63
2022-12-31T00:32:21.855Z,98740.94
2022-12-31T00:34:51.629Z,98801.25
2022-12-31T00:37:19.951Z,98778.09
2022-12-31T00:39:48.417Z,98728.38
2022-12-31T00:42:16.730Z,98744.78
2022-12-31T00:44:45.227Z,98737.44
2022-12-31T00:47:13.880Z,98758.59
2022-12-31T00:49:42.461Z,98786.50
2022-12-31T00:52:14.230Z,98784.03
2022-12-31T00:54:42.470Z,98822.78
2022-12-31T00:57:11.212Z,98774.31
2022-12-31T00:59:39.553Z,98832.16
2022-12-31T01:02:07.915Z,98807.69
2022-12-31T01:04:36.212Z,98839.94
2022-12-31T01:07:04.372Z,98821.09
2022-12-31T01:09:34.003Z,98795.44
2022-12-31T01:12:02.085Z,98780.19
2022-12-31T01:14:32.801Z,98831.81
2022-12-31T01:17:01.106Z,98779.00
2022-12-31T01:19:31.018Z,98806.72
2022-12-31T01:22:02.839Z,98811.53
2022-12-31T01:24:31.146Z,98809.28
2022-12-31T01:27:00.666Z,98834.22
2022-12-31T01:29:29.753Z,98879.50
2022-12-31T01:31:57.947Z,98829.81
2022-12-31T01:34:26.256Z,98822.28
2022-12-31T01:36:54.444Z,98814.28
2022-12-31T01:39:22.611Z,98828.66
2022-12-31T01:41:50.736Z,98861.69
2022-12-31T01:44:56.341Z,98882.06
2022-12-31T01:47:36.229Z,98849.97
2022-12-31T01:50:11.471Z,98900.59
2022-12-31T01:52:42.482Z,98866.97
2022-12-31T01:55:17.843Z,98871.66
2022-12-31T01:57:49.248Z,98882.78
2022-12-31T02:00:19.113Z,98830.19
2022-12-31T02:02:47.782Z,98894.03
2022-12-31T02:05:21.785Z,98875.34
2022-12-31T02:07:51.091Z,98868.03
2022-12-31T02:10:19.490Z,98858.19
2022-12-31T02:12:48.756Z,98871.00
2022-12-31T02:15:18.875Z,98894.50
2022-12-31T02:17:55.716Z,98893.53
2022-12-31T02:20:43.212Z,98859.75
2022-12-31T02:23:34.678Z,98914.19
2022-12-31T02:26:36.364Z,98905.88
2022-12-31T02:29:28.403Z,98886.91
2022-12-31T02:32:00.269Z,98855.38
2022-12-31T02:34:33.999Z,98826.00
2022-12-31T02:37:04.817Z,98881.28
2022-12-31T02:39:34.973Z,98816.56
2022-12-31T02:42:04.225Z,98825.00
2022-12-31T02:44:33.911Z,98846.38
2022-12-31T02:47:19.108Z,98857.22
2022-12-31T02:50:02.067Z,98779.28
2022-12-31T02:52:39.234Z,98860.03
2022-12-31T02:55:16.597Z,98801.22
2022-12-31T02:57:51.566Z,98798.69
2022-12-31T03:00:37.519Z,98813.44
2022-12-31T03:03:09.171Z,98794.75
2022-12-31T03:05:41.661Z,98859.91
2022-12-31T03:08:09.814Z,98865.66
2022-12-31T03:10:38.260Z,98865.66
2022-12-31T03:13:05.157Z,98876.34
2022-12-31T03:15:45.089Z,98830.34
2022-12-31T03:18:18.713Z,98841.19
2022-12-31T03:21:08.464Z,98809.69
2022-12-31T03:23:51.595Z,98836.13
2022-12-31T03:26:21.846Z,98846.69
2022-12-31T03:28:50.168Z,98795.59
2022-12-31T03:31:23.101Z,98784.59
2022-12-31T03:33:57.086Z,98828.03
2022-12-31T03:36:29.747Z,98817.91
2022-12-31T03:38:59.288Z,98829.41
2022-12-31T03:41:27.567Z,98806.19
2022-12-31T03:43:56.811Z,98779.59
2022-12-31T03:46:24.943Z,98817.84
2022-12-31T03:48:54.658Z,98866.97
2022-12-31T03:51:24.111Z,98871.25
2022-12-31T03:53:52.277Z,98837.22
2022-12-31T03:56:20.370Z,98842.22
2022-12-31T03:58:48.809Z,98833.38
2022-12-31T04:01:17.286Z,98823.28
2022-12-31T04:03:45.672Z,98792.34
2022-12-31T04:06:15.376Z,98842.03
2022-12-31T04:08:43.546Z,98831.06
2022-12-31T04:11:14.759Z,98850.75
2022-12-31T04:13:47.090Z,98842.47
2022-12-31T04:16:15.386Z,98825.00
2022-12-31T04:18:43.596Z,98859.59
2022-12-31T04:21:11.673Z,98831.94
2022-12-31T04:23:41.393Z,98820.09
2022-12-31T04:26:09.710Z,98851.38
2022-12-31T04:28:37.774Z,98823.91
2022-12-31T04:31:06.264Z,98835.63
2022-12-31T04:33:34.445Z,98849.44
2022-12-31T04:36:02.976Z,98848.16
2022-12-31T04:38:37.591Z,98840.03
2022-12-31T04:41:19.947Z,98879.69
2022-12-31T04:43:52.536Z,98861.25
2022-12-31T04:46:23.210Z,98861.13
2022-12-31T04:49:00.328Z,98822.63
2022-12-31T04:51:39.743Z,98830.91
2022-12-31T04:54:08.130Z,98811.50
2022-12-31T04:56:37.879Z,98828.81
2022-12-31T04:59:07.500Z,98877.06
2022-12-31T05:02:06.739Z,98837.38
2022-12-31T05:04:35.021Z,98879.88
2022-12-31T05:07:09.926Z,98874.25
2022-12-31T05:09:38.338Z,98834.16
2022-12-31T05:12:08.419Z,98897.88
2022-12-31T05:14:40.960Z,98820.06
2022-12-31T05:17:26.848Z,98818.66
2022-12-31T05:19:58.361Z,98818.94
2022-12-31T05:22:44.768Z,98817.69
2022-12-31T05:25:13.219Z,98817.41
2022-12-31T05:27:46.579Z,98849.06
2022-12-31T05:30:15.992Z,98781.81
2022-12-31T05:35:48.703Z,98837.81
2022-12-31T05:38:17.075Z,98827.78
2022-12-31T05:40:45.435Z,98861.41
2022-12-31T05:43:14.972Z,98874.06
2022-12-31T05:45:43.104Z,98861.38
2022-12-31T05:48:11.304Z,98847.88
2022-12-31T05:50:39.443Z,98831.72
2022-12-31T05:53:07.519Z,98915.56
2022-12-31T05:55:35.648Z,98836.09
2022-12-31T05:58:03.657Z,98895.72
2022-12-31T06:00:38.395Z,98913.56
2022-12-31T06:03:06.529Z,98910.59
2022-12-31T06:05:34.857Z,98892.28
2022-12-31T06:08:02.775Z,98898.91
2022-12-31T06:10:30.710Z,98903.13
2022-12-31T06:12:58.669Z,98911.31
2022-12-31T06:15:26.610Z,98906.06
2022-12-31T06:17:55.894Z,98897.94
2022-12-31T06:20:23.818Z,98898.03
2022-12-31T06:22:51.711Z,98899.00
2022-12-31T06:25:20.922Z,98905.31
2022-12-31T06:27:49.008Z,98894.44
2022-12-31T06:30:17.179Z,98892.94
2022-12-31T06:32:46.271Z,98879.16
2022-12-31T06:35:15.835Z,98909.44
2022-12-31T06:37:43.772Z,98880.25
2022-12-31T06:40:15.523Z,98900.38
2022-12-31T06:42:44.167Z,98927.47
2022-12-31T06:45:14.095Z,98920.50
2022-12-31T06:47:42.305Z,98926.38
2022-12-31T06:50:10.706Z,98902.91
2022-12-31T06:52:40.923Z,98881.31
2022-12-31T06:55:12.723Z,98873.75
2022-12-31T06:57:42.673Z,98875.88
2022-12-31T07:00:12.619Z,98908.63
2022-12-31T07:03:03.748Z,98951.25
2022-12-31T07:05:46.918Z,98948.94
2022-12-31T07:09:36.360Z,98917.94
2022-12-31T07:11:48.215Z,98938.50
2022-12-31T07:14:30.348Z,98871.50
2022-12-31T07:17:08.617Z,98867.28
2022-12-31T07:19:51.067Z,98911.88
2022-12-31T07:22:22.880Z,98874.16
2022-12-31T07:24:53.176Z,98936.22
2022-12-31T07:27:38.504Z,98890.56
2022-12-31T07:30:12.803Z,98907.91
2022-12-31T07:33:01.224Z,98942.09
2022-12-31T07:35:39.131Z,98964.22
2022-12-31T07:38:15.576Z,98923.91
2022-12-31T07:40:59.186Z,98904.94
2022-12-31T07:43:34.623Z,98937.81
2022-12-31T07:46:14.394Z,98938.44
2022-12-31T07:48:42.990Z,98891.88
2022-12-31T07:51:12.463Z,98887.84
2022-12-31T07:53:40.587Z,98959.44
2022-12-31T07:56:11.106Z,98927.47
2022-12-31T07:58:55.489Z,98893.34
2022-12-31T08:01:34.378Z,98912.16
2022-12-31T08:04:08.161Z,98934.75
2022-12-31T08:06:45.891Z,98919.53
2022-12-31T08:09:27.776Z,98890.44
2022-12-31T08:11:59.275Z,98973.94
2022-12-31T08:14:29.317Z,98926.38
2022-12-31T08:16:58.575Z,98966.13
2022-12-31T08:19:30.642Z,98933.22
2022-12-31T08:22:14.510Z,98917.13
2022-12-31T08:25:09.468Z,98981.66
2022-12-31T08:27:45.835Z,98944.97
2022-12-31T08:30:16.640Z,98943.44
2022-12-31T08:32:51.411Z,98951.03
2022-12-31T08:35:32.512Z,98959.38
2022-12-31T08:38:08.190Z,98956.59
2022-12-31T08:40:45.610Z,98907.41
2022-12-31T08:43:31.770Z,98900.09
2022-12-31T08:46:01.609Z,98973.06
2022-12-31T08:48:40.049Z,98936.13
2022-12-31T08:51:14.338Z,98944.09
2022-12-31T08:53:42.985Z,98917.84
2022-12-31T08:56:21.454Z,98933.56
2022-12-31T08:58:56.391Z,98906.50
2022-12-31T09:01:30.672Z,98951.59
2022-12-31T09:04:08.047Z,98978.50
2022-12-31T09:06:42.718Z,98930.47
2022-12-31T09:09:18.323Z,98972.66
2022-12-31T09:11:54.710Z,98939.75
2022-12-31T09:14:42.103Z,98927.00
2022-12-31T09:17:31.396Z,98932.53
2022-12-31T09:20:00.210Z,98950.03
2022-12-31T09:22:28.993Z,98929.03
2022-12-31T09:24:57.523Z,98967.75
2022-12-31T09:27:32.000Z,98939.09
2022-12-31T09:30:05.927Z,98908.13
2022-12-31T09:32:43.921Z,98939.88
2022-12-31T09:35:22.268Z,98921.44
2022-12-31T09:37:53.116Z,98966.94
2022-12-31T09:40:46.584Z,98972.50
2022-12-31T09:44:01.002Z,98987.91
2022-12-31T09:47:33.373Z,98984.78
2022-12-31T09:50:36.463Z,98981.69
2022-12-31T09:53:36.710Z,98997.00
2022-12-31T09:56:11.448Z,98985.78
2022-12-31T09:58:46.330Z,98997.34
2022-12-31T10:01:27.894Z,98996.50
2022-12-31T10:04:25.153Z,98997.63
2022-12-31T10:07:05.700Z,98985.81
2022-12-31T10:10:06.531Z,98972.53
2022-12-31T10:13:09.934Z,98980.09
2022-12-31T10:15:55.442Z,98957.75
2022-12-31T10:18:39.601Z,98969.69
2022-12-31T10:21:27.015Z,98975.75
2022-12-31T10:24:18.489Z,98960.09
2022-12-31T10:27:07.348Z,98959.22
2022-12-31T10:29:46.815Z,98959.06
2022-12-31T10:32:26.288Z,98978.59
2022-12-31T10:35:10.668Z,98963.47
2022-12-31T10:37:48.426Z,98984.88
2022-12-31T10:40:27.932Z,98971.88
2022-12-31T10:43:50.811Z,98956.94
2022-12-31T10:46:57.520Z,98951.47
2022-12-31T10:50:02.411Z,98932.41
2022-12-31T10:53:14.210Z,98948.94
2022-12-31T10:56:22.662Z,98946.91
2022-12-31T11:06:46.109Z,98913.25
2022-12-31T11:09:51.635Z,98905.06
2022-12-31T11:12:40.280Z,98906.06
2022-12-31T11:15:38.572Z,98901.38
2022-12-31T11:18:18.863Z,98896.50
2022-12-31T11:21:12.893Z,98870.25
2022-12-31T11:23:49.718Z,98902.06
2022-12-31T11:26:33.078Z,98892.97
2022-12-31T11:29:15.559Z,98896.50
2022-12-31T11:32:05.637Z,98890.78
2022-12-31T11:35:09.954Z,98889.25
2022-12-31T11:37:46.428Z,98888.91
2022-12-31T11:40:43.230Z,98883.72
2022-12-31T11:43:37.873Z,98883.16
2022-12-31T11:46:41.524Z,98885.03
2022-12-31T11:49:42.410Z,98869.50
2022-12-31T11:52:36.705Z,98859.91
2022-12-31T11:55:28.510Z,98864.13
2022-12-31T11:58:03.841Z,98802.53
2022-12-31T12:00:34.080Z,98851.50
2022-12-31T12:03:06.154Z,98805.03
2022-12-31T12:05:36.258Z,98804.50
2022-12-31T12:08:05.243Z,98857.13
2022-12-31T12:10:38.125Z,98825.41
2022-12-31T12:13:15.776Z,98823.94
2022-12-31T12:16:02.103Z,98776.13
2022-12-31T12:18:36.197Z,98863.97
2022-12-31T12:21:09.944Z,98812.22
2022-12-31T12:23:38.746Z,98845.97
2022-12-31T12:26:28.566Z,98826.69
2022-12-31T12:28:56.692Z,98804.97
2022-12-31T12:31:27.033Z,98810.56
2022-12-31T12:33:55.145Z,98786.53
2022-12-31T12:36:23.461Z,98783.34
2022-12-31T12:39:02.892Z,98823.25
2022-12-31T12:41:32.752Z,98813.16
2022-12-31T12:44:06.477Z,98824.94
2022-12-31T12:46:37.599Z,98823.78
2022-12-31T12:49:06.573Z,98822.69
2022-12-31T12:51:59.315Z,98829.56
2022-12-31T12:54:39.888Z,98804.16
2022-12-31T12:57:19.798Z,98822.00
2022-12-31T13:00:04.406Z,98797.81
2022-12-31T13:02:55.762Z,98809.91
2022-12-31T13:05:36.673Z,98778.84
2022-12-31T13:08:15.432Z,98829.22
2022-12-31T13:10:59.349Z,98822.59
2022-12-31T13:13:32.873Z,98822.44
2022-12-31T13:16:09.025Z,98771.53
2022-12-31T13:18:49.976Z,98837.09
2022-12-31T13:21:32.416Z,98810.75
2022-12-31T13:24:07.891Z,98803.56
2022-12-31T13:26:45.059Z,98824.59
2022-12-31T13:29:19.130Z,98781.28
2022-12-31T13:31:49.086Z,98805.56
2022-12-31T13:34:23.593Z,98784.13
2022-12-31T13:36:54.248Z,98821.41
2022-12-31T14:30:00.775Z,98868.22
2022-12-31T14:32:59.995Z,98860.50
2022-12-31T14:35:54.404Z,98843.66
2022-12-31T14:38:34.936Z,98826.66
2022-12-31T14:41:18.478Z,98849.00
2022-12-31T14:43:56.004Z,98835.94
2022-12-31T14:46:31.199Z,98829.53
2022-12-31T14:49:16.329Z,98825.78
2022-12-31T14:51:44.919Z,98817.19
2022-12-31T14:54:30.651Z,98849.63
2022-12-31T14:56:58.654Z,98852.44
2022-12-31T14:59:32.192Z,98835.09
2022-12-31T15:02:02.582Z,98837.59
2022-12-31T15:04:35.695Z,98881.00
2022-12-31T15:07:17.852Z,98871.06
2022-12-31T15:09:58.891Z,98824.25
2022-12-31T15:13:03.944Z,98894.91
2022-12-31T15:15:56.270Z,98810.06
2022-12-31T15:18:38.676Z,98841.88
2022-12-31T15:49:24.987Z,98861.63
2022-12-31T15:52:04.524Z,98894.78
2022-12-31T15:54:43.753Z,98846.22
2022-12-31T15:57:19.361Z,98856.59
2022-12-31T15:59:50.895Z,98867.66
2022-12-31T16:02:27.840Z,98861.81
2022-12-31T16:04:57.700Z,98906.53
2022-12-31T16:07:34.503Z,98909.66
2022-12-31T16:10:07.634Z,98825.19
2022-12-31T16:12:44.572Z,98860.19
2022-12-31T16:15:32.812Z,98904.03
2022-12-31T16:18:17.133Z,98879.41
2022-12-31T16:20:54.884Z,98879.03
2022-12-31T16:23:26.517Z,98855.81
2022-12-31T16:26:01.694Z,98880.63
2022-12-31T16:28:36.717Z,98861.81
2022-12-31T16:31:17.279Z,98916.09
2022-12-31T16:33:48.726Z,98915.22
2022-12-31T16:36:22.631Z,98897.81
2022-12-31T16:38:53.394Z,98900.81
2022-12-31T16:41:24.820Z,98893.72
2022-12-31T16:44:32.329Z,98904.97
2022-12-31T16:47:04.021Z,98896.91
2022-12-31T16:50:06.289Z,98824.78
2022-12-31T16:52:39.811Z,98903.03
2022-12-31T16:55:12.010Z,98915.91
2022-12-31T16:57:58.705Z,98893.97
2022-12-31T17:00:28.853Z,98873.56
2022-12-31T17:03:10.011Z,98920.81
2022-12-31T17:05:57.613Z,98920.72
2022-12-31T17:08:30.766Z,98915.63
2022-12-31T17:11:04.604Z,98916.38
2022-12-31T17:13:37.204Z,98913.72
2022-12-31T17:16:10.437Z,98869.72
2022-12-31T17:18:39.907Z,98895.41
2022-12-31T17:21:24.928Z,98900.03
2022-12-31T17:23:56.656Z,98863.00
2022-12-31T17:26:29.456Z,98876.78
2022-12-31T17:29:02.235Z,98868.06
2022-12-31T17:31:35.274Z,98842.34
2022-12-31T17:34:24.488Z,98823.78
2022-12-31T17:37:18.716Z,98827.34
2022-12-31T17:39:48.449Z,98913.19
2022-12-31T17:42:25.765Z,98847.44
2022-12-31T17:44:58.138Z,98827.88
2022-12-31T17:47:38.163Z,98870.38
2022-12-31T17:50:21.302Z,98883.22
2022-12-31T17:52:50.896Z,98847.75
2022-12-31T17:55:19.971Z,98865.75
2022-12-31T17:57:52.980Z,98934.06
2022-12-31T18:00:23.451Z,98853.94
2022-12-31T18:02:51.772Z,98881.94
2022-12-31T18:05:22.155Z,98917.16
2022-12-31T18:07:52.115Z,98909.59
2022-12-31T18:10:23.460Z,98905.13
2022-12-31T18:12:52.090Z,98909.25
2022-12-31T18:15:22.749Z,98882.09
2022-12-31T18:17:51.327Z,98874.25
2022-12-31T18:20:20.019Z,98919.88
2022-12-31T18:22:48.445Z,98912.75
2022-12-31T18:25:20.752Z,98930.19
2022-12-31T18:27:49.510Z,98918.78
2022-12-31T18:30:18.132Z,98960.31
2022-12-31T18:32:47.431Z,98888.13
2022-12-31T18:35:48.619Z,98876.28
2022-12-31T18:38:12.313Z,98913.03
2022-12-31T18:40:44.640Z,98924.28
2022-12-31T18:43:58.320Z,98969.66
2022-12-31T18:46:27.152Z,98957.34
2022-12-31T18:48:55.382Z,98961.94
2022-12-31T18:51:31.709Z,98903.63
2022-12-31T18:54:00.712Z,98936.41
2022-12-31T18:56:31.437Z,98901.44
2022-12-31T18:59:00.310Z,98990.75
2022-12-31T19:01:31.464Z,98903.97
2022-12-31T19:04:05.262Z,98918.63
2022-12-31T19:06:34.235Z,98967.38
2022-12-31T19:12:07.989Z,99006.59
2022-12-31T19:14:37.130Z,98959.81
2022-12-31T19:19:34.920Z,98970.22
2022-12-31T19:22:05.647Z,98922.47
2022-12-31T19:24:35.215Z,98925.63
2022-12-31T19:27:03.738Z,98952.75
2022-12-31T19:29:35.428Z,99018.81
2022-12-31T19:32:08.173Z,99014.94
2022-12-31T19:34:36.261Z,98926.09
2022-12-31T19:37:05.065Z,98925.88
2022-12-31T19:42:04.271Z,98964.81
2022-12-31T19:44:33.649Z,98974.78
2022-12-31T19:47:01.638Z,99007.22
2022-12-31T19:49:29.597Z,98994.63
2022-12-31T19:51:57.602Z,99015.78
2022-12-31T19:54:25.588Z,98958.44
2022-12-31T19:56:53.670Z,98961.09
2022-12-31T19:59:21.688Z,99009.16
2022-12-31T20:01:51.122Z,98945.72
2022-12-31T20:04:19.377Z,98983.41
2022-12-31T20:06:47.429Z,98946.03
2022-12-31T20:09:15.512Z,98982.34
2022-12-31T20:11:43.489Z,98988.28
2022-12-31T20:14:12.024Z,98994.44
2022-12-31T20:16:40.087Z,98998.63
2022-12-31T20:19:10.906Z,99019.34
2022-12-31T20:21:38.923Z,98995.31
2022-12-31T20:24:07.332Z,98947.78
2022-12-31T20:26:35.445Z,98967.16
2022-12-31T20:29:03.409Z,99010.81
2022-12-31T20:31:31.461Z,99003.19
2022-12-31T20:33:59.428Z,99023.38
2022-12-31T20:36:28.796Z,99017.81
2022-12-31T20:38:56.709Z,99021.13
2022-12-31T20:41:25.052Z,99017.81
2022-12-31T20:43:53.189Z,99011.38
2022-12-31T20:46:24.903Z,99030.41
2022-12-31T20:48:54.816Z,99027.53
2022-12-31T20:51:24.198Z,99027.03
2022-12-31T20:53:56.055Z,98977.75
2022-12-31T20:56:25.337Z,99036.44
2022-12-31T20:58:53.343Z,99031.00
2022-12-31T21:01:24.238Z,99043.94
2022-12-31T21:04:04.774Z,99054.25
2022-12-31T21:06:35.919Z,99063.03
2022-12-31T21:09:12.119Z,99054.69
2022-12-31T21:11:58.230Z,99063.38
2022-12-31T21:14:26.371Z,99066.84
2022-12-31T21:16:54.570Z,99070.75
2022-12-31T21:19:23.457Z,99069.97
2022-12-31T21:21:52.111Z,99056.47
2022-12-31T21:24:24.481Z,99078.09
2022-12-31T21:26:52.927Z,99084.00
2022-12-31T21:30:18.791Z,99006.91
2022-12-31T21:32:52.392Z,99020.75
2022-12-31T21:39:16.379Z,99050.09
2022-12-31T21:41:53.490Z,99033.03
2022-12-31T21:44:22.628Z,99102.41
2022-12-31T21:47:16.339Z,99057.63
2022-12-31T21:49:39.089Z,99090.66
2022-12-31T21:52:20.943Z,99095.56
2022-12-31T21:55:06.422Z,99098.84
2022-12-31T21:57:59.105Z,99107.91
2022-12-31T22:00:43.063Z,99103.09
2022-12-31T22:03:26.967Z,99108.66
2022-12-31T22:06:00.515Z,99107.28
2022-12-31T22:08:30.258Z,99106.84
2022-12-31T22:10:58.715Z,99125.63
2022-12-31T22:13:28.667Z,99089.72
2022-12-31T22:16:05.850Z,99090.28
2022-12-31T22:18:35.955Z,99143.22
2022-12-31T22:21:10.799Z,99077.16
2022-12-31T22:23:44.506Z,99141.09
2022-12-31T22:26:15.277Z,99068.53
2022-12-31T22:28:45.974Z,99121.22
2022-12-31T22:31:16.996Z,99137.66
2022-12-31T22:33:47.291Z,99132.19
2022-12-31T22:36:39.487Z,99121.88
2022-12-31T22:39:09.058Z,99116.88
2022-12-31T22:41:42.484Z,99121.56
2022-12-31T22:44:13.169Z,99156.53
2022-12-31T22:46:42.065Z,99171.47
2022-12-31T22:49:14.492Z,99166.13
2022-12-31T22:51:57.136Z,99154.53
2022-12-31T22:54:26.983Z,99165.22
2022-12-31T22:56:54.990Z,99133.50
2022-12-31T22:59:31.467Z,99187.63
2022-12-31T23:01:59.593Z,99161.25
2022-12-31T23:05:16.140Z,99181.50
2022-12-31T23:07:44.551Z,99149.53
2022-12-31T23:10:29.768Z,99183.53
2022-12-31T23:12:57.738Z,99171.47
2022-12-31T23:15:44.440Z,99199.66
2022-12-31T23:18:29.592Z,99190.38
2022-12-31T23:21:14.874Z,99188.50
2022-12-31T23:23:42.832Z,99189.47
2022-12-31T23:26:10.777Z,99128.53
2022-12-31T23:28:38.775Z,99155.56
2022-12-31T23:31:08.872Z,99176.88
2022-12-31T23:33:36.884Z,99138.56
2022-12-31T23:36:05.922Z,99172.75
2022-12-31T23:38:33.923Z,99134.44
2022-12-31T23:41:01.887Z,99191.63
2022-12-31T23:43:29.809Z,99176.72
2022-12-31T23:45:57.776Z,99178.16
2022-12-31T23:48:28.449Z,99184.31
2022-12-31T23:50:57.726Z,99198.75
2022-12-31T23:53:27.287Z,99196.41
2022-12-31T23:55:55.867Z,99191.53
2022-12-31T23:58:27.990Z,99196.16
